Cou Falls, Iowa
Current Conditions -  °F | °C
As of 7:52 AM on Friday 31 Oct 2014 (Local Time) from KCID Reporting Station
Clear Clear  
Wind Chill: 18°   Ceiling: Unl
Heat Index: 29°   Visibility: 10mi
Dew Point: 20°   Wind: 15mph
Humidity: 69%   Direction: 340°NNW
Pressure: 30.34"   Gusts: 28mph
Location:  41.8309°N, 91.7193°W
Report Text: KCID 311252Z 34013G24KT 10SM CLR M02/M07 A3034 RMK AO2 SLP282 T10171067
Loading
Personal Weather Stations






























Interactive Weather Map New forecast layout! Learn more

10-Day Weather Forecast

Advertisements
Track Severe Weather on mobile